sensor_id;sensor_type;location;lat;lon;timestamp;P1;durP1;ratioP1;P2;durP2;ratioP2
71610;SDS011;59459;51.172;6.682;2023-02-01T00:01:20;30.90;;;10.67;;
71610;SDS011;59459;51.172;6.682;2023-02-01T00:03:45;30.20;;;11.30;;
71610;SDS011;59459;51.172;6.682;2023-02-01T00:06:10;29.87;;;10.60;;
71610;SDS011;59459;51.172;6.682;2023-02-01T00:08:35;27.13;;;11.47;;
71610;SDS011;59459;51.172;6.682;2023-02-01T00:11:02;29.20;;;10.87;;
71610;SDS011;59459;51.172;6.682;2023-02-01T00:13:28;27.15;;;10.48;;
71610;SDS011;59459;51.172;6.682;2023-02-01T00:15:54;24.63;;;9.73;;
71610;SDS011;59459;51.172;6.682;2023-02-01T00:18:19;28.53;;;10.03;;
71610;SDS011;59459;51.172;6.682;2023-02-01T00:20:45;22.53;;;9.57;;
71610;SDS011;59459;51.172;6.682;2023-02-01T00:23:11;25.08;;;9.02;;
71610;SDS011;59459;51.172;6.682;2023-02-01T00:25:36;24.43;;;9.53;;
71610;SDS011;59459;51.172;6.682;2023-02-01T00:28:01;28.27;;;9.90;;
71610;SDS011;59459;51.172;6.682;2023-02-01T00:30:26;20.23;;;8.20;;
71610;SDS011;59459;51.172;6.682;2023-02-01T00:32:51;21.50;;;7.83;;
71610;SDS011;59459;51.172;6.682;2023-02-01T00:35:17;24.03;;;7.17;;
71610;SDS011;59459;51.172;6.682;2023-02-01T00:37:42;20.77;;;7.87;;
71610;SDS011;59459;51.172;6.682;2023-02-01T00:40:07;22.73;;;6.97;;
71610;SDS011;59459;51.172;6.682;2023-02-01T00:42:32;22.40;;;8.00;;
71610;SDS011;59459;51.172;6.682;2023-02-01T00:44:58;19.03;;;6.63;;
71610;SDS011;59459;51.172;6.682;2023-02-01T00:47:23;17.13;;;6.37;;
71610;SDS011;59459;51.172;6.682;2023-02-01T00:49:48;21.87;;;6.10;;
71610;SDS011;59459;51.172;6.682;2023-02-01T00:52:13;20.63;;;6.97;;
71610;SDS011;59459;51.172;6.682;2023-02-01T00:54:39;18.13;;;5.90;;
71610;SDS011;59459;51.172;6.682;2023-02-01T00:57:04;21.77;;;5.70;;
71610;SDS011;59459;51.172;6.682;2023-02-01T00:59:29;18.53;;;5.83;;
71610;SDS011;59459;51.172;6.682;2023-02-01T01:01:54;19.57;;;4.77;;
71610;SDS011;59459;51.172;6.682;2023-02-01T01:04:19;16.93;;;4.63;;
71610;SDS011;59459;51.172;6.682;2023-02-01T01:06:45;16.60;;;4.77;;
71610;SDS011;59459;51.172;6.682;2023-02-01T01:09:10;15.87;;;4.70;;
71610;SDS011;59459;51.172;6.682;2023-02-01T01:11:36;16.73;;;4.33;;
71610;SDS011;59459;51.172;6.682;2023-02-01T01:14:02;14.40;;;4.15;;
71610;SDS011;59459;51.172;6.682;2023-02-01T01:16:29;14.02;;;3.70;;
71610;SDS011;59459;51.172;6.682;2023-02-01T01:18:55;14.77;;;4.70;;
71610;SDS011;59459;51.172;6.682;2023-02-01T01:21:20;13.43;;;3.80;;
71610;SDS011;59459;51.172;6.682;2023-02-01T01:23:45;15.20;;;3.83;;
71610;SDS011;59459;51.172;6.682;2023-02-01T01:26:16;15.25;;;4.03;;
71610;SDS011;59459;51.172;6.682;2023-02-01T01:28:41;15.57;;;4.05;;
71610;SDS011;59459;51.172;6.682;2023-02-01T01:31:08;9.80;;;3.37;;
71610;SDS011;59459;51.172;6.682;2023-02-01T01:33:33;17.00;;;4.68;;
71610;SDS011;59459;51.172;6.682;2023-02-01T01:35:58;12.17;;;3.53;;
71610;SDS011;59459;51.172;6.682;2023-02-01T01:38:23;15.67;;;3.33;;
71610;SDS011;59459;51.172;6.682;2023-02-01T01:40:49;10.77;;;2.93;;
71610;SDS011;59459;51.172;6.682;2023-02-01T01:43:18;13.82;;;3.30;;
71610;SDS011;59459;51.172;6.682;2023-02-01T01:45:46;12.15;;;3.88;;
71610;SDS011;59459;51.172;6.682;2023-02-01T01:48:21;13.50;;;2.90;;
71610;SDS011;59459;51.172;6.682;2023-02-01T01:50:50;17.38;;;3.13;;
71610;SDS011;59459;51.172;6.682;2023-02-01T01:53:18;11.73;;;2.77;;
71610;SDS011;59459;51.172;6.682;2023-02-01T01:55:45;13.55;;;2.55;;
71610;SDS011;59459;51.172;6.682;2023-02-01T01:58:15;15.60;;;3.83;;
71610;SDS011;59459;51.172;6.682;2023-02-01T02:00:41;12.60;;;3.08;;
71610;SDS011;59459;51.172;6.682;2023-02-01T02:03:11;13.80;;;3.23;;
71610;SDS011;59459;51.172;6.682;2023-02-01T02:05:39;14.95;;;3.30;;
71610;SDS011;59459;51.172;6.682;2023-02-01T02:08:04;14.03;;;3.07;;
71610;SDS011;59459;51.172;6.682;2023-02-01T02:10:29;15.17;;;3.00;;
71610;SDS011;59459;51.172;6.682;2023-02-01T02:13:14;11.25;;;3.30;;
71610;SDS011;59459;51.172;6.682;2023-02-01T02:21:10;8.77;;;2.60;;
71610;SDS011;59459;51.172;6.682;2023-02-01T02:26:34;13.50;;;3.22;;
71610;SDS011;59459;51.172;6.682;2023-02-01T02:47:22;13.45;;;2.97;;
71610;SDS011;59459;51.172;6.682;2023-02-01T02:49:51;11.68;;;3.08;;
71610;SDS011;59459;51.172;6.682;2023-02-01T02:52:38;12.82;;;3.08;;
71610;SDS011;59459;51.172;6.682;2023-02-01T02:55:25;16.55;;;3.38;;
71610;SDS011;59459;51.172;6.682;2023-02-01T02:57:52;16.97;;;3.60;;
71610;SDS011;59459;51.172;6.682;2023-02-01T03:00:36;14.30;;;3.50;;
71610;SDS011;59459;51.172;6.682;2023-02-01T03:03:21;13.77;;;3.38;;
71610;SDS011;59459;51.172;6.682;2023-02-01T03:06:08;17.83;;;4.55;;
71610;SDS011;59459;51.172;6.682;2023-02-01T03:08:35;14.43;;;3.53;;
71610;SDS011;59459;51.172;6.682;2023-02-01T03:13:38;14.17;;;3.07;;
71610;SDS011;59459;51.172;6.682;2023-02-01T03:16:11;13.52;;;3.05;;
71610;SDS011;59459;51.172;6.682;2023-02-01T03:21:10;15.13;;;3.08;;
71610;SDS011;59459;51.172;6.682;2023-02-01T03:23:37;16.30;;;4.20;;
71610;SDS011;59459;51.172;6.682;2023-02-01T03:26:04;18.43;;;3.43;;
71610;SDS011;59459;51.172;6.682;2023-02-01T03:28:31;11.57;;;3.13;;
71610;SDS011;59459;51.172;6.682;2023-02-01T03:30:57;16.42;;;4.10;;
71610;SDS011;59459;51.172;6.682;2023-02-01T03:33:23;14.03;;;3.90;;
71610;SDS011;59459;51.172;6.682;2023-02-01T03:35:54;16.00;;;3.03;;
71610;SDS011;59459;51.172;6.682;2023-02-01T03:40:52;18.77;;;3.80;;
71610;SDS011;59459;51.172;6.682;2023-02-01T03:43:19;15.73;;;2.97;;
71610;SDS011;59459;51.172;6.682;2023-02-01T03:45:46;9.40;;;2.67;;
71610;SDS011;59459;51.172;6.682;2023-02-01T03:48:12;11.55;;;2.67;;
71610;SDS011;59459;51.172;6.682;2023-02-01T03:50:39;18.90;;;2.70;;
71610;SDS011;59459;51.172;6.682;2023-02-01T03:53:09;14.65;;;2.95;;
71610;SDS011;59459;51.172;6.682;2023-02-01T03:55:35;17.23;;;2.95;;
71610;SDS011;59459;51.172;6.682;2023-02-01T03:58:04;18.60;;;3.10;;
71610;SDS011;59459;51.172;6.682;2023-02-01T04:00:31;13.80;;;2.33;;
71610;SDS011;59459;51.172;6.682;2023-02-01T04:02:56;12.23;;;2.90;;
71610;SDS011;59459;51.172;6.682;2023-02-01T04:05:28;17.20;;;2.90;;
71610;SDS011;59459;51.172;6.682;2023-02-01T04:07:53;12.57;;;3.43;;
71610;SDS011;59459;51.172;6.682;2023-02-01T04:10:19;15.68;;;3.05;;
71610;SDS011;59459;51.172;6.682;2023-02-01T04:12:44;11.47;;;2.57;;
71610;SDS011;59459;51.172;6.682;2023-02-01T04:15:09;12.87;;;2.80;;
71610;SDS011;59459;51.172;6.682;2023-02-01T04:17:35;15.33;;;3.50;;
71610;SDS011;59459;51.172;6.682;2023-02-01T04:20:00;13.50;;;3.17;;
71610;SDS011;59459;51.172;6.682;2023-02-01T04:22:25;12.57;;;3.37;;
71610;SDS011;59459;51.172;6.682;2023-02-01T04:24:50;13.87;;;3.07;;
71610;SDS011;59459;51.172;6.682;2023-02-01T04:27:15;14.17;;;3.30;;
71610;SDS011;59459;51.172;6.682;2023-02-01T04:29:41;13.60;;;2.53;;
71610;SDS011;59459;51.172;6.682;2023-02-01T04:32:06;18.60;;;2.70;;
71610;SDS011;59459;51.172;6.682;2023-02-01T04:34:31;11.63;;;3.23;;
71610;SDS011;59459;51.172;6.682;2023-02-01T04:36:56;13.97;;;2.77;;
71610;SDS011;59459;51.172;6.682;2023-02-01T04:39:22;13.20;;;2.70;;
71610;SDS011;59459;51.172;6.682;2023-02-01T04:41:47;20.40;;;3.40;;
71610;SDS011;59459;51.172;6.682;2023-02-01T04:44:13;16.43;;;3.27;;
71610;SDS011;59459;51.172;6.682;2023-02-01T04:46:39;11.70;;;3.00;;
71610;SDS011;59459;51.172;6.682;2023-02-01T04:49:04;13.93;;;3.33;;
71610;SDS011;59459;51.172;6.682;2023-02-01T04:51:29;16.33;;;2.93;;
71610;SDS011;59459;51.172;6.682;2023-02-01T04:53:55;10.10;;;2.67;;
71610;SDS011;59459;51.172;6.682;2023-02-01T04:56:20;8.67;;;2.17;;
71610;SDS011;59459;51.172;6.682;2023-02-01T04:58:45;17.03;;;2.97;;
71610;SDS011;59459;51.172;6.682;2023-02-01T05:01:11;16.37;;;3.60;;
71610;SDS011;59459;51.172;6.682;2023-02-01T05:03:36;10.50;;;3.13;;
71610;SDS011;59459;51.172;6.682;2023-02-01T05:06:01;11.93;;;2.97;;
71610;SDS011;59459;51.172;6.682;2023-02-01T05:08:29;13.02;;;3.00;;
71610;SDS011;59459;51.172;6.682;2023-02-01T05:10:54;16.83;;;3.10;;
71610;SDS011;59459;51.172;6.682;2023-02-01T05:13:19;22.87;;;4.47;;
71610;SDS011;59459;51.172;6.682;2023-02-01T05:16:08;15.32;;;2.58;;
71610;SDS011;59459;51.172;6.682;2023-02-01T05:18:33;16.13;;;2.80;;
71610;SDS011;59459;51.172;6.682;2023-02-01T05:20:58;14.40;;;2.97;;
71610;SDS011;59459;51.172;6.682;2023-02-01T05:23:23;19.57;;;3.00;;
71610;SDS011;59459;51.172;6.682;2023-02-01T05:25:48;15.40;;;2.67;;
71610;SDS011;59459;51.172;6.682;2023-02-01T05:28:14;17.93;;;3.37;;
71610;SDS011;59459;51.172;6.682;2023-02-01T05:30:39;8.07;;;2.23;;
71610;SDS011;59459;51.172;6.682;2023-02-01T05:33:04;12.63;;;2.63;;
71610;SDS011;59459;51.172;6.682;2023-02-01T05:35:29;15.47;;;2.77;;
71610;SDS011;59459;51.172;6.682;2023-02-01T05:37:55;15.17;;;3.20;;
71610;SDS011;59459;51.172;6.682;2023-02-01T05:40:20;12.37;;;2.80;;
71610;SDS011;59459;51.172;6.682;2023-02-01T05:42:45;20.87;;;3.23;;
71610;SDS011;59459;51.172;6.682;2023-02-01T05:45:10;14.97;;;2.53;;
71610;SDS011;59459;51.172;6.682;2023-02-01T05:47:36;17.50;;;2.80;;
71610;SDS011;59459;51.172;6.682;2023-02-01T05:50:01;14.57;;;2.03;;
71610;SDS011;59459;51.172;6.682;2023-02-01T05:52:26;13.73;;;2.50;;
71610;SDS011;59459;51.172;6.682;2023-02-01T05:54:51;13.27;;;2.17;;
71610;SDS011;59459;51.172;6.682;2023-02-01T05:57:17;12.30;;;2.60;;
71610;SDS011;59459;51.172;6.682;2023-02-01T05:59:43;15.70;;;2.57;;
71610;SDS011;59459;51.172;6.682;2023-02-01T06:02:12;14.98;;;2.60;;
71610;SDS011;59459;51.172;6.682;2023-02-01T06:04:37;18.53;;;2.80;;
71610;SDS011;59459;51.172;6.682;2023-02-01T06:07:03;10.90;;;3.00;;
71610;SDS011;59459;51.172;6.682;2023-02-01T06:09:28;18.77;;;2.50;;
71610;SDS011;59459;51.172;6.682;2023-02-01T06:11:53;14.97;;;3.47;;
71610;SDS011;59459;51.172;6.682;2023-02-01T06:14:19;20.83;;;3.20;;
71610;SDS011;59459;51.172;6.682;2023-02-01T06:16:44;10.17;;;2.27;;
71610;SDS011;59459;51.172;6.682;2023-02-01T06:19:11;16.13;;;2.42;;
71610;SDS011;59459;51.172;6.682;2023-02-01T06:21:36;11.17;;;2.10;;
71610;SDS011;59459;51.172;6.682;2023-02-01T06:24:01;16.33;;;2.83;;
71610;SDS011;59459;51.172;6.682;2023-02-01T06:26:27;15.87;;;3.17;;
71610;SDS011;59459;51.172;6.682;2023-02-01T06:28:53;13.77;;;2.50;;
71610;SDS011;59459;51.172;6.682;2023-02-01T06:31:18;12.07;;;2.30;;
71610;SDS011;59459;51.172;6.682;2023-02-01T06:33:44;11.93;;;2.83;;
71610;SDS011;59459;51.172;6.682;2023-02-01T06:36:10;16.38;;;3.20;;
71610;SDS011;59459;51.172;6.682;2023-02-01T06:38:37;14.27;;;2.67;;
71610;SDS011;59459;51.172;6.682;2023-02-01T06:41:03;12.50;;;2.47;;
71610;SDS011;59459;51.172;6.682;2023-02-01T06:43:29;13.02;;;2.33;;
71610;SDS011;59459;51.172;6.682;2023-02-01T06:45:59;17.50;;;2.93;;
71610;SDS011;59459;51.172;6.682;2023-02-01T06:48:24;8.73;;;2.38;;
71610;SDS011;59459;51.172;6.682;2023-02-01T06:50:49;11.70;;;2.57;;
71610;SDS011;59459;51.172;6.682;2023-02-01T06:53:14;22.27;;;3.07;;
71610;SDS011;59459;51.172;6.682;2023-02-01T06:55:39;15.00;;;2.77;;
71610;SDS011;59459;51.172;6.682;2023-02-01T06:58:05;15.63;;;3.20;;
71610;SDS011;59459;51.172;6.682;2023-02-01T07:00:30;14.23;;;2.40;;
71610;SDS011;59459;51.172;6.682;2023-02-01T07:02:56;17.37;;;2.60;;
71610;SDS011;59459;51.172;6.682;2023-02-01T07:05:22;11.30;;;2.45;;
71610;SDS011;59459;51.172;6.682;2023-02-01T07:07:47;16.20;;;2.80;;
71610;SDS011;59459;51.172;6.682;2023-02-01T07:10:12;15.50;;;2.70;;
71610;SDS011;59459;51.172;6.682;2023-02-01T07:12:38;16.80;;;2.93;;
71610;SDS011;59459;51.172;6.682;2023-02-01T07:15:04;12.75;;;1.92;;
71610;SDS011;59459;51.172;6.682;2023-02-01T07:17:30;14.20;;;2.70;;
71610;SDS011;59459;51.172;6.682;2023-02-01T07:19:55;22.10;;;2.67;;
71610;SDS011;59459;51.172;6.682;2023-02-01T07:22:21;13.18;;;3.30;;
71610;SDS011;59459;51.172;6.682;2023-02-01T07:24:46;15.37;;;2.83;;
71610;SDS011;59459;51.172;6.682;2023-02-01T07:27:12;11.10;;;2.33;;
71610;SDS011;59459;51.172;6.682;2023-02-01T07:29:37;14.13;;;2.80;;
71610;SDS011;59459;51.172;6.682;2023-02-01T07:32:02;11.77;;;2.90;;
71610;SDS011;59459;51.172;6.682;2023-02-01T07:34:28;15.83;;;2.40;;
71610;SDS011;59459;51.172;6.682;2023-02-01T07:36:53;13.43;;;2.42;;
71610;SDS011;59459;51.172;6.682;2023-02-01T07:39:19;17.53;;;3.27;;
71610;SDS011;59459;51.172;6.682;2023-02-01T07:41:44;14.10;;;2.60;;
71610;SDS011;59459;51.172;6.682;2023-02-01T07:44:10;14.20;;;3.58;;
71610;SDS011;59459;51.172;6.682;2023-02-01T07:46:35;13.23;;;2.50;;
71610;SDS011;59459;51.172;6.682;2023-02-01T07:49:01;14.53;;;2.60;;
71610;SDS011;59459;51.172;6.682;2023-02-01T07:51:26;17.07;;;3.03;;
71610;SDS011;59459;51.172;6.682;2023-02-01T07:53:51;14.20;;;3.47;;
71610;SDS011;59459;51.172;6.682;2023-02-01T07:56:18;12.83;;;3.40;;
71610;SDS011;59459;51.172;6.682;2023-02-01T07:58:46;20.10;;;3.17;;
71610;SDS011;59459;51.172;6.682;2023-02-01T08:01:21;12.07;;;3.17;;
71610;SDS011;59459;51.172;6.682;2023-02-01T08:03:53;18.33;;;2.88;;
71610;SDS011;59459;51.172;6.682;2023-02-01T08:06:19;14.05;;;3.28;;
71610;SDS011;59459;51.172;6.682;2023-02-01T08:08:45;13.47;;;2.23;;
71610;SDS011;59459;51.172;6.682;2023-02-01T08:11:11;11.93;;;2.00;;
71610;SDS011;59459;51.172;6.682;2023-02-01T08:13:36;16.80;;;2.70;;
71610;SDS011;59459;51.172;6.682;2023-02-01T08:16:03;17.70;;;2.57;;
71610;SDS011;59459;51.172;6.682;2023-02-01T08:18:28;11.10;;;2.63;;
71610;SDS011;59459;51.172;6.682;2023-02-01T08:20:54;15.87;;;2.87;;
71610;SDS011;59459;51.172;6.682;2023-02-01T08:23:19;16.70;;;3.23;;
71610;SDS011;59459;51.172;6.682;2023-02-01T08:25:45;20.87;;;3.23;;
71610;SDS011;59459;51.172;6.682;2023-02-01T08:28:10;16.30;;;2.87;;
71610;SDS011;59459;51.172;6.682;2023-02-01T08:30:38;17.63;;;2.93;;
71610;SDS011;59459;51.172;6.682;2023-02-01T08:33:04;12.00;;;2.80;;
71610;SDS011;59459;51.172;6.682;2023-02-01T08:35:31;18.87;;;3.17;;
71610;SDS011;59459;51.172;6.682;2023-02-01T08:37:56;14.87;;;2.87;;
71610;SDS011;59459;51.172;6.682;2023-02-01T08:40:22;13.20;;;3.37;;
71610;SDS011;59459;51.172;6.682;2023-02-01T08:42:47;12.70;;;3.17;;
71610;SDS011;59459;51.172;6.682;2023-02-01T08:45:20;14.60;;;3.42;;
71610;SDS011;59459;51.172;6.682;2023-02-01T08:47:45;18.85;;;3.40;;
71610;SDS011;59459;51.172;6.682;2023-02-01T08:50:12;17.17;;;3.53;;
71610;SDS011;59459;51.172;6.682;2023-02-01T08:52:37;13.77;;;3.20;;
71610;SDS011;59459;51.172;6.682;2023-02-01T08:55:02;13.60;;;2.93;;
71610;SDS011;59459;51.172;6.682;2023-02-01T08:57:28;20.00;;;4.47;;
71610;SDS011;59459;51.172;6.682;2023-02-01T08:59:53;13.87;;;3.10;;
71610;SDS011;59459;51.172;6.682;2023-02-01T09:02:18;13.93;;;3.30;;
71610;SDS011;59459;51.172;6.682;2023-02-01T09:04:43;8.82;;;2.40;;
71610;SDS011;59459;51.172;6.682;2023-02-01T09:07:09;14.37;;;2.63;;
71610;SDS011;59459;51.172;6.682;2023-02-01T09:09:34;20.27;;;3.57;;
71610;SDS011;59459;51.172;6.682;2023-02-01T09:12:00;15.73;;;3.17;;
71610;SDS011;59459;51.172;6.682;2023-02-01T09:14:25;17.87;;;4.17;;
71610;SDS011;59459;51.172;6.682;2023-02-01T09:16:50;15.83;;;3.30;;
71610;SDS011;59459;51.172;6.682;2023-02-01T09:19:18;12.85;;;3.00;;
71610;SDS011;59459;51.172;6.682;2023-02-01T09:21:44;13.77;;;2.77;;
71610;SDS011;59459;51.172;6.682;2023-02-01T09:24:10;12.53;;;3.17;;
71610;SDS011;59459;51.172;6.682;2023-02-01T09:26:35;14.63;;;3.58;;
71610;SDS011;59459;51.172;6.682;2023-02-01T09:29:00;12.83;;;3.60;;
71610;SDS011;59459;51.172;6.682;2023-02-01T09:31:26;12.13;;;3.47;;
71610;SDS011;59459;51.172;6.682;2023-02-01T09:33:51;13.47;;;4.10;;
71610;SDS011;59459;51.172;6.682;2023-02-01T09:36:16;17.83;;;3.60;;
71610;SDS011;59459;51.172;6.682;2023-02-01T09:38:44;18.00;;;3.53;;
71610;SDS011;59459;51.172;6.682;2023-02-01T09:41:23;15.13;;;3.23;;
71610;SDS011;59459;51.172;6.682;2023-02-01T09:46:23;17.13;;;3.33;;
71610;SDS011;59459;51.172;6.682;2023-02-01T09:48:49;15.40;;;3.38;;
71610;SDS011;59459;51.172;6.682;2023-02-01T09:51:19;11.63;;;3.53;;
71610;SDS011;59459;51.172;6.682;2023-02-01T09:53:47;15.43;;;3.30;;
71610;SDS011;59459;51.172;6.682;2023-02-01T09:56:14;13.20;;;3.47;;
71610;SDS011;59459;51.172;6.682;2023-02-01T09:58:51;10.90;;;3.90;;
71610;SDS011;59459;51.172;6.682;2023-02-01T10:01:19;9.43;;;3.00;;
71610;SDS011;59459;51.172;6.682;2023-02-01T10:03:46;15.98;;;3.28;;
71610;SDS011;59459;51.172;6.682;2023-02-01T10:24:16;15.70;;;3.10;;
71610;SDS011;59459;51.172;6.682;2023-02-01T10:29:49;14.25;;;3.45;;
71610;SDS011;59459;51.172;6.682;2023-02-01T10:32:17;12.88;;;2.72;;
71610;SDS011;59459;51.172;6.682;2023-02-01T10:34:46;14.82;;;3.72;;
71610;SDS011;59459;51.172;6.682;2023-02-01T10:37:23;18.37;;;4.30;;
71610;SDS011;59459;51.172;6.682;2023-02-01T10:39:49;18.33;;;3.58;;
71610;SDS011;59459;51.172;6.682;2023-02-01T10:42:16;14.05;;;3.58;;
71610;SDS011;59459;51.172;6.682;2023-02-01T10:44:43;13.85;;;3.78;;
71610;SDS011;59459;51.172;6.682;2023-02-01T10:47:10;16.80;;;3.27;;
71610;SDS011;59459;51.172;6.682;2023-02-01T10:49:38;16.55;;;2.88;;
71610;SDS011;59459;51.172;6.682;2023-02-01T10:52:12;11.80;;;2.97;;
71610;SDS011;59459;51.172;6.682;2023-02-01T10:54:39;14.48;;;3.83;;
71610;SDS011;59459;51.172;6.682;2023-02-01T10:57:08;21.97;;;3.30;;
71610;SDS011;59459;51.172;6.682;2023-02-01T10:59:34;17.02;;;3.65;;
71610;SDS011;59459;51.172;6.682;2023-02-01T11:02:02;12.70;;;2.90;;
71610;SDS011;59459;51.172;6.682;2023-02-01T11:04:32;17.25;;;3.25;;
71610;SDS011;59459;51.172;6.682;2023-02-01T11:07:12;9.73;;;2.67;;
71610;SDS011;59459;51.172;6.682;2023-02-01T11:09:38;18.73;;;3.30;;
71610;SDS011;59459;51.172;6.682;2023-02-01T11:12:04;16.75;;;2.92;;
71610;SDS011;59459;51.172;6.682;2023-02-01T11:14:39;10.93;;;2.80;;
71610;SDS011;59459;51.172;6.682;2023-02-01T11:19:43;13.05;;;3.20;;
71610;SDS011;59459;51.172;6.682;2023-02-01T11:22:09;16.00;;;3.42;;
71610;SDS011;59459;51.172;6.682;2023-02-01T11:24:35;11.15;;;3.28;;
71610;SDS011;59459;51.172;6.682;2023-02-01T11:27:04;13.47;;;2.90;;
71610;SDS011;59459;51.172;6.682;2023-02-01T11:29:33;12.95;;;3.05;;
71610;SDS011;59459;51.172;6.682;2023-02-01T11:32:00;11.35;;;3.67;;
71610;SDS011;59459;51.172;6.682;2023-02-01T11:34:30;12.60;;;3.70;;
71610;SDS011;59459;51.172;6.682;2023-02-01T11:36:58;15.38;;;3.17;;
71610;SDS011;59459;51.172;6.682;2023-02-01T11:39:30;13.30;;;3.07;;
71610;SDS011;59459;51.172;6.682;2023-02-01T11:41:58;15.43;;;2.88;;
71610;SDS011;59459;51.172;6.682;2023-02-01T11:44:31;12.35;;;3.10;;
71610;SDS011;59459;51.172;6.682;2023-02-01T11:47:12;11.13;;;3.28;;
71610;SDS011;59459;51.172;6.682;2023-02-01T11:49:42;14.00;;;3.20;;
71610;SDS011;59459;51.172;6.682;2023-02-01T11:52:12;14.30;;;3.40;;
71610;SDS011;59459;51.172;6.682;2023-02-01T11:57:36;13.40;;;3.35;;
71610;SDS011;59459;51.172;6.682;2023-02-01T12:00:11;10.20;;;3.17;;
71610;SDS011;59459;51.172;6.682;2023-02-01T12:05:27;12.95;;;3.28;;
71610;SDS011;59459;51.172;6.682;2023-02-01T12:10:32;13.43;;;3.40;;
71610;SDS011;59459;51.172;6.682;2023-02-01T12:13:13;11.43;;;2.83;;
71610;SDS011;59459;51.172;6.682;2023-02-01T12:20:52;16.63;;;4.05;;
71610;SDS011;59459;51.172;6.682;2023-02-01T12:23:27;13.93;;;3.53;;
71610;SDS011;59459;51.172;6.682;2023-02-01T12:25:57;11.70;;;3.60;;
71610;SDS011;59459;51.172;6.682;2023-02-01T12:31:15;15.23;;;3.50;;
71610;SDS011;59459;51.172;6.682;2023-02-01T12:39:36;13.47;;;3.50;;
71610;SDS011;59459;51.172;6.682;2023-02-01T12:41:44;14.48;;;3.42;;
71610;SDS011;59459;51.172;6.682;2023-02-01T12:46:58;13.57;;;2.55;;
71610;SDS011;59459;51.172;6.682;2023-02-01T12:55:06;13.95;;;3.10;;
71610;SDS011;59459;51.172;6.682;2023-02-01T12:57:34;11.32;;;3.10;;
71610;SDS011;59459;51.172;6.682;2023-02-01T13:02:45;11.93;;;2.58;;
71610;SDS011;59459;51.172;6.682;2023-02-01T13:10:24;13.50;;;2.97;;
71610;SDS011;59459;51.172;6.682;2023-02-01T13:13:00;9.82;;;2.17;;
71610;SDS011;59459;51.172;6.682;2023-02-01T13:15:36;17.30;;;2.78;;
71610;SDS011;59459;51.172;6.682;2023-02-01T13:18:04;11.20;;;2.40;;
71610;SDS011;59459;51.172;6.682;2023-02-01T13:20:53;8.97;;;2.40;;
71610;SDS011;59459;51.172;6.682;2023-02-01T13:23:27;9.60;;;2.83;;
71610;SDS011;59459;51.172;6.682;2023-02-01T13:25:53;12.90;;;2.63;;
71610;SDS011;59459;51.172;6.682;2023-02-01T13:28:26;11.88;;;2.63;;
71610;SDS011;59459;51.172;6.682;2023-02-01T13:40:46;11.23;;;3.30;;
71610;SDS011;59459;51.172;6.682;2023-02-01T13:43:33;16.93;;;2.50;;
71610;SDS011;59459;51.172;6.682;2023-02-01T13:46:05;17.58;;;2.40;;
71610;SDS011;59459;51.172;6.682;2023-02-01T13:51:06;12.95;;;2.55;;
71610;SDS011;59459;51.172;6.682;2023-02-01T13:53:32;11.40;;;2.30;;
71610;SDS011;59459;51.172;6.682;2023-02-01T13:58:31;11.27;;;2.60;;
71610;SDS011;59459;51.172;6.682;2023-02-01T14:03:43;8.88;;;2.08;;
71610;SDS011;59459;51.172;6.682;2023-02-01T14:06:34;9.98;;;2.30;;
71610;SDS011;59459;51.172;6.682;2023-02-01T14:11:36;16.65;;;2.80;;
71610;SDS011;59459;51.172;6.682;2023-02-01T14:16:39;11.32;;;2.40;;
71610;SDS011;59459;51.172;6.682;2023-02-01T14:19:07;11.53;;;2.33;;
71610;SDS011;59459;51.172;6.682;2023-02-01T14:21:34;11.02;;;2.50;;
71610;SDS011;59459;51.172;6.682;2023-02-01T14:29:41;10.87;;;2.40;;
71610;SDS011;59459;51.172;6.682;2023-02-01T14:31:51;8.68;;;2.60;;
71610;SDS011;59459;51.172;6.682;2023-02-01T14:34:22;8.90;;;1.92;;
71610;SDS011;59459;51.172;6.682;2023-02-01T14:36:48;10.88;;;2.38;;
71610;SDS011;59459;51.172;6.682;2023-02-01T14:41:51;10.00;;;1.90;;
71610;SDS011;59459;51.172;6.682;2023-02-01T14:44:28;6.43;;;1.30;;
71610;SDS011;59459;51.172;6.682;2023-02-01T14:49:29;9.93;;;2.10;;
71610;SDS011;59459;51.172;6.682;2023-02-01T14:51:56;11.88;;;2.30;;
71610;SDS011;59459;51.172;6.682;2023-02-01T14:54:21;12.23;;;2.37;;
71610;SDS011;59459;51.172;6.682;2023-02-01T14:56:47;10.02;;;1.88;;
71610;SDS011;59459;51.172;6.682;2023-02-01T14:59:14;11.85;;;1.90;;
71610;SDS011;59459;51.172;6.682;2023-02-01T15:01:46;10.30;;;1.73;;
71610;SDS011;59459;51.172;6.682;2023-02-01T15:04:14;11.73;;;1.77;;
71610;SDS011;59459;51.172;6.682;2023-02-01T15:06:53;11.25;;;1.80;;
71610;SDS011;59459;51.172;6.682;2023-02-01T15:09:32;13.10;;;1.70;;
71610;SDS011;59459;51.172;6.682;2023-02-01T15:12:00;9.57;;;1.95;;
71610;SDS011;59459;51.172;6.682;2023-02-01T15:14:28;9.45;;;2.00;;
71610;SDS011;59459;51.172;6.682;2023-02-01T15:16:53;11.57;;;2.47;;
71610;SDS011;59459;51.172;6.682;2023-02-01T15:19:23;12.80;;;2.43;;
71610;SDS011;59459;51.172;6.682;2023-02-01T15:21:49;14.00;;;3.10;;
71610;SDS011;59459;51.172;6.682;2023-02-01T15:26:46;10.10;;;2.05;;
71610;SDS011;59459;51.172;6.682;2023-02-01T15:29:12;11.03;;;1.80;;
71610;SDS011;59459;51.172;6.682;2023-02-01T15:31:39;8.63;;;2.20;;
71610;SDS011;59459;51.172;6.682;2023-02-01T15:34:05;9.17;;;2.30;;
71610;SDS011;59459;51.172;6.682;2023-02-01T15:36:31;9.13;;;1.90;;
71610;SDS011;59459;51.172;6.682;2023-02-01T15:41:48;11.90;;;1.87;;
71610;SDS011;59459;51.172;6.682;2023-02-01T15:44:21;11.95;;;2.05;;
71610;SDS011;59459;51.172;6.682;2023-02-01T15:46:49;9.35;;;1.95;;
71610;SDS011;59459;51.172;6.682;2023-02-01T15:49:25;10.00;;;1.92;;
71610;SDS011;59459;51.172;6.682;2023-02-01T15:51:51;12.45;;;2.67;;
71610;SDS011;59459;51.172;6.682;2023-02-01T15:54:22;10.20;;;2.17;;
71610;SDS011;59459;51.172;6.682;2023-02-01T15:56:51;11.57;;;2.55;;
71610;SDS011;59459;51.172;6.682;2023-02-01T15:59:19;12.30;;;2.35;;
71610;SDS011;59459;51.172;6.682;2023-02-01T16:01:45;11.25;;;2.83;;
71610;SDS011;59459;51.172;6.682;2023-02-01T16:06:51;14.70;;;2.42;;
71610;SDS011;59459;51.172;6.682;2023-02-01T16:09:17;15.63;;;2.40;;
71610;SDS011;59459;51.172;6.682;2023-02-01T16:11:52;13.30;;;2.13;;
71610;SDS011;59459;51.172;6.682;2023-02-01T16:14:17;14.57;;;2.78;;
71610;SDS011;59459;51.172;6.682;2023-02-01T16:16:42;10.30;;;2.47;;
71610;SDS011;59459;51.172;6.682;2023-02-01T16:19:08;13.00;;;2.53;;
71610;SDS011;59459;51.172;6.682;2023-02-01T16:21:33;16.80;;;3.20;;
71610;SDS011;59459;51.172;6.682;2023-02-01T16:23:58;10.27;;;1.98;;
71610;SDS011;59459;51.172;6.682;2023-02-01T16:26:28;11.93;;;2.53;;
71610;SDS011;59459;51.172;6.682;2023-02-01T16:28:54;11.43;;;2.03;;
71610;SDS011;59459;51.172;6.682;2023-02-01T16:31:20;13.57;;;2.63;;
71610;SDS011;59459;51.172;6.682;2023-02-01T16:33:46;9.13;;;2.43;;
71610;SDS011;59459;51.172;6.682;2023-02-01T16:36:12;9.75;;;1.58;;
71610;SDS011;59459;51.172;6.682;2023-02-01T16:38:38;12.15;;;2.67;;
71610;SDS011;59459;51.172;6.682;2023-02-01T16:41:03;15.20;;;2.00;;
71610;SDS011;59459;51.172;6.682;2023-02-01T16:43:30;9.75;;;1.98;;
71610;SDS011;59459;51.172;6.682;2023-02-01T16:45:55;11.17;;;2.20;;
71610;SDS011;59459;51.172;6.682;2023-02-01T16:48:28;11.68;;;2.40;;
71610;SDS011;59459;51.172;6.682;2023-02-01T16:50:55;10.50;;;2.85;;
71610;SDS011;59459;51.172;6.682;2023-02-01T16:53:21;9.60;;;2.10;;
71610;SDS011;59459;51.172;6.682;2023-02-01T16:55:47;10.32;;;1.92;;
71610;SDS011;59459;51.172;6.682;2023-02-01T16:58:12;13.57;;;2.15;;